Terminal Aerodrome Forecast
Issued by NWS Albany, NY

Home | Current Version | Previous Version | Text Only | Print | Product List | Glossary On
Versions: 1 2 3 4 5 6 7 8 9 10 11 12 13 14
787
FTUS41 KALY 202332
TAFPOU
TAF
KPOU 202332Z 2100/2124 35005KT P6SM VCTS OVC060CB
      TEMPO 2100/2101 3SM -TSRA BR BKN050CB
     FM210300 VRB03KT P6SM BCFG BKN250
     FM210700 VRB03KT 2SM BR BKN010
     FM211300 28005G15KT P6SM SCT040 SCT250=

USA.gov is the U.S. government's official web portal to all federal, state and local government web resources and services.